sensor_id;sensor_type;location;lat;lon;timestamp;P1;durP1;ratioP1;P2;durP2;ratioP2
48596;SDS011;34382;43.160;24.148;2022-10-17T00:00:54;11.10;;;5.90;;
48596;SDS011;34382;43.160;24.148;2022-10-17T00:02:26;11.50;;;5.53;;
48596;SDS011;34382;43.160;24.148;2022-10-17T00:03:58;10.43;;;5.72;;
48596;SDS011;34382;43.160;24.148;2022-10-17T00:05:30;10.07;;;5.15;;
48596;SDS011;34382;43.160;24.148;2022-10-17T00:07:02;10.77;;;5.43;;
48596;SDS011;34382;43.160;24.148;2022-10-17T00:08:35;10.00;;;5.10;;
48596;SDS011;34382;43.160;24.148;2022-10-17T00:10:07;10.85;;;6.25;;
48596;SDS011;34382;43.160;24.148;2022-10-17T00:11:39;10.82;;;5.47;;
48596;SDS011;34382;43.160;24.148;2022-10-17T00:13:11;9.65;;;5.65;;
48596;SDS011;34382;43.160;24.148;2022-10-17T00:14:43;10.35;;;5.32;;
48596;SDS011;34382;43.160;24.148;2022-10-17T00:16:37;10.15;;;6.03;;
48596;SDS011;34382;43.160;24.148;2022-10-17T00:18:09;12.80;;;5.55;;
48596;SDS011;34382;43.160;24.148;2022-10-17T00:19:41;11.98;;;6.43;;
48596;SDS011;34382;43.160;24.148;2022-10-17T00:21:16;10.30;;;5.57;;
48596;SDS011;34382;43.160;24.148;2022-10-17T00:22:49;10.75;;;5.68;;
48596;SDS011;34382;43.160;24.148;2022-10-17T00:24:22;12.82;;;5.57;;
48596;SDS011;34382;43.160;24.148;2022-10-17T00:26:00;10.30;;;5.53;;
48596;SDS011;34382;43.160;24.148;2022-10-17T00:27:34;11.60;;;5.97;;
48596;SDS011;34382;43.160;24.148;2022-10-17T00:29:07;11.00;;;6.10;;
48596;SDS011;34382;43.160;24.148;2022-10-17T00:30:39;10.73;;;5.93;;
48596;SDS011;34382;43.160;24.148;2022-10-17T00:32:11;10.23;;;5.20;;
48596;SDS011;34382;43.160;24.148;2022-10-17T00:33:43;10.55;;;6.13;;
48596;SDS011;34382;43.160;24.148;2022-10-17T00:35:15;9.80;;;5.82;;
48596;SDS011;34382;43.160;24.148;2022-10-17T00:36:48;11.43;;;5.30;;
48596;SDS011;34382;43.160;24.148;2022-10-17T00:38:20;11.07;;;6.45;;
48596;SDS011;34382;43.160;24.148;2022-10-17T00:39:52;9.65;;;5.43;;
48596;SDS011;34382;43.160;24.148;2022-10-17T00:41:27;11.70;;;5.90;;
48596;SDS011;34382;43.160;24.148;2022-10-17T00:43:01;10.68;;;5.63;;
48596;SDS011;34382;43.160;24.148;2022-10-17T00:46:05;11.40;;;6.18;;
48596;SDS011;34382;43.160;24.148;2022-10-17T00:47:37;11.25;;;6.00;;
48596;SDS011;34382;43.160;24.148;2022-10-17T00:49:10;10.38;;;5.28;;
48596;SDS011;34382;43.160;24.148;2022-10-17T00:50:43;10.98;;;6.10;;
48596;SDS011;34382;43.160;24.148;2022-10-17T00:52:19;13.80;;;5.60;;
48596;SDS011;34382;43.160;24.148;2022-10-17T00:53:54;14.13;;;5.72;;
48596;SDS011;34382;43.160;24.148;2022-10-17T00:55:27;10.82;;;5.68;;
48596;SDS011;34382;43.160;24.148;2022-10-17T00:57:02;9.95;;;5.22;;
48596;SDS011;34382;43.160;24.148;2022-10-17T00:58:34;12.18;;;5.95;;
48596;SDS011;34382;43.160;24.148;2022-10-17T01:00:07;10.85;;;5.82;;
48596;SDS011;34382;43.160;24.148;2022-10-17T01:01:42;12.70;;;5.82;;
48596;SDS011;34382;43.160;24.148;2022-10-17T01:03:19;11.82;;;5.63;;
48596;SDS011;34382;43.160;24.148;2022-10-17T01:04:51;11.80;;;5.68;;
48596;SDS011;34382;43.160;24.148;2022-10-17T01:06:26;9.82;;;5.72;;
48596;SDS011;34382;43.160;24.148;2022-10-17T01:07:58;9.73;;;5.43;;
48596;SDS011;34382;43.160;24.148;2022-10-17T01:09:30;11.07;;;5.72;;
48596;SDS011;34382;43.160;24.148;2022-10-17T01:13:12;12.20;;;5.90;;
48596;SDS011;34382;43.160;24.148;2022-10-17T01:14:59;12.57;;;5.75;;
48596;SDS011;34382;43.160;24.148;2022-10-17T01:28:00;10.60;;;4.93;;
48596;SDS011;34382;43.160;24.148;2022-10-17T01:31:14;10.75;;;5.28;;
48596;SDS011;34382;43.160;24.148;2022-10-17T01:32:48;10.70;;;5.30;;
48596;SDS011;34382;43.160;24.148;2022-10-17T01:36:19;10.95;;;5.32;;
48596;SDS011;34382;43.160;24.148;2022-10-17T01:38:32;11.93;;;5.78;;
48596;SDS011;34382;43.160;24.148;2022-10-17T01:40:08;10.32;;;5.18;;
48596;SDS011;34382;43.160;24.148;2022-10-17T01:43:21;11.30;;;5.82;;
48596;SDS011;34382;43.160;24.148;2022-10-17T01:44:59;12.52;;;5.63;;
48596;SDS011;34382;43.160;24.148;2022-10-17T01:46:36;11.70;;;5.68;;
48596;SDS011;34382;43.160;24.148;2022-10-17T01:48:16;9.43;;;4.93;;
48596;SDS011;34382;43.160;24.148;2022-10-17T01:49:51;10.82;;;5.43;;
48596;SDS011;34382;43.160;24.148;2022-10-17T01:51:29;11.18;;;5.43;;
48596;SDS011;34382;43.160;24.148;2022-10-17T01:53:24;9.77;;;5.05;;
48596;SDS011;34382;43.160;24.148;2022-10-17T01:55:05;9.77;;;5.30;;
48596;SDS011;34382;43.160;24.148;2022-10-17T01:56:40;9.73;;;5.32;;
48596;SDS011;34382;43.160;24.148;2022-10-17T01:58:19;10.85;;;5.55;;
48596;SDS011;34382;43.160;24.148;2022-10-17T01:59:54;10.60;;;5.85;;
48596;SDS011;34382;43.160;24.148;2022-10-17T02:01:27;9.15;;;4.88;;
48596;SDS011;34382;43.160;24.148;2022-10-17T02:03:01;10.95;;;5.28;;
48596;SDS011;34382;43.160;24.148;2022-10-17T02:04:36;9.60;;;5.50;;
48596;SDS011;34382;43.160;24.148;2022-10-17T02:06:08;10.13;;;5.38;;
48596;SDS011;34382;43.160;24.148;2022-10-17T02:07:40;12.95;;;5.57;;
48596;SDS011;34382;43.160;24.148;2022-10-17T02:09:16;10.82;;;5.55;;
48596;SDS011;34382;43.160;24.148;2022-10-17T02:10:57;9.95;;;4.88;;
48596;SDS011;34382;43.160;24.148;2022-10-17T02:12:54;11.60;;;6.20;;
48596;SDS011;34382;43.160;24.148;2022-10-17T02:25:40;11.88;;;5.35;;
48596;SDS011;34382;43.160;24.148;2022-10-17T02:30:54;11.45;;;6.13;;
48596;SDS011;34382;43.160;24.148;2022-10-17T02:32:33;13.93;;;5.95;;
48596;SDS011;34382;43.160;24.148;2022-10-17T02:34:18;11.68;;;5.70;;
48596;SDS011;34382;43.160;24.148;2022-10-17T02:35:57;12.10;;;5.78;;
48596;SDS011;34382;43.160;24.148;2022-10-17T02:37:31;10.57;;;5.80;;
48596;SDS011;34382;43.160;24.148;2022-10-17T02:39:03;11.63;;;6.80;;
48596;SDS011;34382;43.160;24.148;2022-10-17T02:40:37;13.52;;;6.43;;
48596;SDS011;34382;43.160;24.148;2022-10-17T02:42:11;10.43;;;5.82;;
48596;SDS011;34382;43.160;24.148;2022-10-17T02:45:17;9.40;;;4.97;;
48596;SDS011;34382;43.160;24.148;2022-10-17T02:46:54;11.20;;;5.67;;
48596;SDS011;34382;43.160;24.148;2022-10-17T02:48:42;11.70;;;5.70;;
48596;SDS011;34382;43.160;24.148;2022-10-17T02:50:21;11.43;;;5.10;;
48596;SDS011;34382;43.160;24.148;2022-10-17T02:52:44;11.63;;;5.68;;
48596;SDS011;34382;43.160;24.148;2022-10-17T02:55:55;10.15;;;5.25;;
48596;SDS011;34382;43.160;24.148;2022-10-17T02:57:35;11.27;;;4.95;;
48596;SDS011;34382;43.160;24.148;2022-10-17T02:59:09;10.35;;;5.40;;
48596;SDS011;34382;43.160;24.148;2022-10-17T03:00:45;10.40;;;5.10;;
48596;SDS011;34382;43.160;24.148;2022-10-17T03:02:17;19.67;;;6.85;;
48596;SDS011;34382;43.160;24.148;2022-10-17T03:03:49;9.52;;;4.93;;
48596;SDS011;34382;43.160;24.148;2022-10-17T03:05:24;12.32;;;5.28;;
48596;SDS011;34382;43.160;24.148;2022-10-17T03:06:58;9.93;;;5.00;;
48596;SDS011;34382;43.160;24.148;2022-10-17T03:08:30;9.82;;;4.90;;
48596;SDS011;34382;43.160;24.148;2022-10-17T03:10:03;9.30;;;4.90;;
48596;SDS011;34382;43.160;24.148;2022-10-17T03:11:35;11.03;;;5.03;;
48596;SDS011;34382;43.160;24.148;2022-10-17T03:13:07;11.48;;;5.38;;
48596;SDS011;34382;43.160;24.148;2022-10-17T03:14:39;9.43;;;4.97;;
48596;SDS011;34382;43.160;24.148;2022-10-17T03:16:11;10.05;;;4.97;;
48596;SDS011;34382;43.160;24.148;2022-10-17T03:17:43;10.25;;;5.28;;
48596;SDS011;34382;43.160;24.148;2022-10-17T03:19:35;10.38;;;5.15;;
48596;SDS011;34382;43.160;24.148;2022-10-17T03:21:07;9.40;;;4.80;;
48596;SDS011;34382;43.160;24.148;2022-10-17T03:22:39;9.07;;;5.38;;
48596;SDS011;34382;43.160;24.148;2022-10-17T03:24:11;11.35;;;4.75;;
48596;SDS011;34382;43.160;24.148;2022-10-17T03:25:44;9.32;;;4.95;;
48596;SDS011;34382;43.160;24.148;2022-10-17T03:27:16;9.48;;;4.68;;
48596;SDS011;34382;43.160;24.148;2022-10-17T03:28:48;10.23;;;5.40;;
48596;SDS011;34382;43.160;24.148;2022-10-17T03:30:24;9.55;;;4.95;;
48596;SDS011;34382;43.160;24.148;2022-10-17T03:31:56;11.63;;;5.18;;
48596;SDS011;34382;43.160;24.148;2022-10-17T03:33:28;9.25;;;4.88;;
48596;SDS011;34382;43.160;24.148;2022-10-17T03:35:01;9.57;;;4.50;;
48596;SDS011;34382;43.160;24.148;2022-10-17T03:36:33;10.10;;;4.97;;
48596;SDS011;34382;43.160;24.148;2022-10-17T03:38:05;8.10;;;4.18;;
48596;SDS011;34382;43.160;24.148;2022-10-17T03:39:37;10.68;;;4.60;;
48596;SDS011;34382;43.160;24.148;2022-10-17T03:41:09;10.55;;;4.53;;
48596;SDS011;34382;43.160;24.148;2022-10-17T03:42:41;10.40;;;4.50;;
48596;SDS011;34382;43.160;24.148;2022-10-17T03:44:13;10.15;;;4.60;;
48596;SDS011;34382;43.160;24.148;2022-10-17T03:45:46;10.45;;;5.20;;
48596;SDS011;34382;43.160;24.148;2022-10-17T03:47:18;10.63;;;5.65;;
48596;SDS011;34382;43.160;24.148;2022-10-17T03:48:50;8.48;;;4.55;;
48596;SDS011;34382;43.160;24.148;2022-10-17T03:50:22;9.10;;;3.95;;
48596;SDS011;34382;43.160;24.148;2022-10-17T03:51:54;9.45;;;5.00;;
48596;SDS011;34382;43.160;24.148;2022-10-17T03:53:29;8.80;;;4.55;;
48596;SDS011;34382;43.160;24.148;2022-10-17T03:55:01;8.93;;;4.55;;
48596;SDS011;34382;43.160;24.148;2022-10-17T03:56:33;9.45;;;4.90;;
48596;SDS011;34382;43.160;24.148;2022-10-17T03:58:05;10.30;;;4.90;;
48596;SDS011;34382;43.160;24.148;2022-10-17T03:59:38;9.10;;;4.90;;
48596;SDS011;34382;43.160;24.148;2022-10-17T04:01:11;9.05;;;4.72;;
48596;SDS011;34382;43.160;24.148;2022-10-17T04:02:44;10.32;;;5.07;;
48596;SDS011;34382;43.160;24.148;2022-10-17T04:04:16;8.93;;;4.85;;
48596;SDS011;34382;43.160;24.148;2022-10-17T04:05:48;9.88;;;4.70;;
48596;SDS011;34382;43.160;24.148;2022-10-17T04:07:20;11.35;;;4.90;;
48596;SDS011;34382;43.160;24.148;2022-10-17T04:08:52;9.85;;;5.18;;
48596;SDS011;34382;43.160;24.148;2022-10-17T04:10:24;9.35;;;5.03;;
48596;SDS011;34382;43.160;24.148;2022-10-17T04:11:56;12.40;;;5.78;;
48596;SDS011;34382;43.160;24.148;2022-10-17T04:13:28;10.63;;;5.20;;
48596;SDS011;34382;43.160;24.148;2022-10-17T04:15:01;9.93;;;4.88;;
48596;SDS011;34382;43.160;24.148;2022-10-17T04:16:33;9.85;;;5.22;;
48596;SDS011;34382;43.160;24.148;2022-10-17T04:18:05;10.07;;;5.03;;
48596;SDS011;34382;43.160;24.148;2022-10-17T04:19:37;10.13;;;4.70;;
48596;SDS011;34382;43.160;24.148;2022-10-17T04:21:10;9.55;;;5.07;;
48596;SDS011;34382;43.160;24.148;2022-10-17T04:22:42;8.95;;;4.43;;
48596;SDS011;34382;43.160;24.148;2022-10-17T04:24:14;9.43;;;4.88;;
48596;SDS011;34382;43.160;24.148;2022-10-17T04:25:47;9.63;;;4.85;;
48596;SDS011;34382;43.160;24.148;2022-10-17T04:27:19;9.93;;;4.40;;
48596;SDS011;34382;43.160;24.148;2022-10-17T04:28:51;9.13;;;4.70;;
48596;SDS011;34382;43.160;24.148;2022-10-17T04:30:23;8.63;;;4.18;;
48596;SDS011;34382;43.160;24.148;2022-10-17T04:31:55;13.27;;;5.00;;
48596;SDS011;34382;43.160;24.148;2022-10-17T04:33:28;7.78;;;4.30;;
48596;SDS011;34382;43.160;24.148;2022-10-17T04:35:00;8.15;;;4.43;;
48596;SDS011;34382;43.160;24.148;2022-10-17T04:36:32;9.48;;;4.63;;
48596;SDS011;34382;43.160;24.148;2022-10-17T04:38:04;9.27;;;5.10;;
48596;SDS011;34382;43.160;24.148;2022-10-17T04:39:36;9.52;;;5.03;;
48596;SDS011;34382;43.160;24.148;2022-10-17T04:41:10;13.63;;;4.97;;
48596;SDS011;34382;43.160;24.148;2022-10-17T04:42:43;9.10;;;4.68;;
48596;SDS011;34382;43.160;24.148;2022-10-17T04:44:15;9.90;;;4.65;;
48596;SDS011;34382;43.160;24.148;2022-10-17T04:45:47;9.40;;;4.43;;
48596;SDS011;34382;43.160;24.148;2022-10-17T04:47:20;11.90;;;4.97;;
48596;SDS011;34382;43.160;24.148;2022-10-17T04:48:52;11.40;;;4.93;;
48596;SDS011;34382;43.160;24.148;2022-10-17T04:50:24;10.45;;;4.57;;
48596;SDS011;34382;43.160;24.148;2022-10-17T04:51:57;10.82;;;4.90;;
48596;SDS011;34382;43.160;24.148;2022-10-17T04:53:35;10.60;;;4.50;;
48596;SDS011;34382;43.160;24.148;2022-10-17T04:55:08;9.70;;;4.55;;
48596;SDS011;34382;43.160;24.148;2022-10-17T04:56:40;7.88;;;4.03;;
48596;SDS011;34382;43.160;24.148;2022-10-17T04:58:13;8.00;;;4.00;;
48596;SDS011;34382;43.160;24.148;2022-10-17T04:59:45;9.77;;;4.45;;
48596;SDS011;34382;43.160;24.148;2022-10-17T05:01:18;9.68;;;4.60;;
48596;SDS011;34382;43.160;24.148;2022-10-17T05:02:52;9.98;;;4.30;;
48596;SDS011;34382;43.160;24.148;2022-10-17T05:04:24;10.13;;;4.95;;
48596;SDS011;34382;43.160;24.148;2022-10-17T05:06:04;10.18;;;4.93;;
48596;SDS011;34382;43.160;24.148;2022-10-17T05:07:40;10.15;;;4.75;;
48596;SDS011;34382;43.160;24.148;2022-10-17T05:09:12;9.48;;;4.53;;
48596;SDS011;34382;43.160;24.148;2022-10-17T05:10:44;10.18;;;4.25;;
48596;SDS011;34382;43.160;24.148;2022-10-17T05:12:16;8.68;;;4.28;;
48596;SDS011;34382;43.160;24.148;2022-10-17T05:13:52;9.63;;;4.50;;
48596;SDS011;34382;43.160;24.148;2022-10-17T05:15:32;9.15;;;4.68;;
48596;SDS011;34382;43.160;24.148;2022-10-17T05:17:04;9.70;;;4.88;;
48596;SDS011;34382;43.160;24.148;2022-10-17T05:18:36;11.02;;;4.28;;
48596;SDS011;34382;43.160;24.148;2022-10-17T05:21:41;9.83;;;4.67;;
48596;SDS011;34382;43.160;24.148;2022-10-17T05:23:13;9.07;;;4.30;;
48596;SDS011;34382;43.160;24.148;2022-10-17T05:24:45;8.82;;;4.32;;
48596;SDS011;34382;43.160;24.148;2022-10-17T05:26:18;9.65;;;4.88;;
48596;SDS011;34382;43.160;24.148;2022-10-17T05:27:51;9.32;;;4.63;;
48596;SDS011;34382;43.160;24.148;2022-10-17T05:29:23;8.60;;;4.25;;
48596;SDS011;34382;43.160;24.148;2022-10-17T05:30:55;10.40;;;4.55;;
48596;SDS011;34382;43.160;24.148;2022-10-17T05:32:27;10.77;;;5.00;;
48596;SDS011;34382;43.160;24.148;2022-10-17T05:34:00;11.48;;;4.90;;
48596;SDS011;34382;43.160;24.148;2022-10-17T05:35:33;10.38;;;4.95;;
48596;SDS011;34382;43.160;24.148;2022-10-17T05:37:05;11.15;;;5.00;;
48596;SDS011;34382;43.160;24.148;2022-10-17T05:38:37;9.77;;;5.32;;
48596;SDS011;34382;43.160;24.148;2022-10-17T05:40:09;11.25;;;5.07;;
48596;SDS011;34382;43.160;24.148;2022-10-17T05:41:42;9.30;;;5.03;;
48596;SDS011;34382;43.160;24.148;2022-10-17T05:43:14;10.57;;;5.00;;
48596;SDS011;34382;43.160;24.148;2022-10-17T05:44:46;9.50;;;4.70;;
48596;SDS011;34382;43.160;24.148;2022-10-17T05:46:18;10.00;;;5.18;;
48596;SDS011;34382;43.160;24.148;2022-10-17T05:47:51;10.48;;;5.00;;
48596;SDS011;34382;43.160;24.148;2022-10-17T05:49:23;10.57;;;5.65;;
48596;SDS011;34382;43.160;24.148;2022-10-17T05:51:15;10.43;;;5.40;;
48596;SDS011;34382;43.160;24.148;2022-10-17T05:52:47;9.45;;;5.07;;
48596;SDS011;34382;43.160;24.148;2022-10-17T05:54:24;10.30;;;5.20;;
48596;SDS011;34382;43.160;24.148;2022-10-17T05:55:57;11.02;;;5.72;;
48596;SDS011;34382;43.160;24.148;2022-10-17T05:57:30;9.93;;;4.57;;
48596;SDS011;34382;43.160;24.148;2022-10-17T05:59:03;9.48;;;4.90;;
48596;SDS011;34382;43.160;24.148;2022-10-17T06:00:35;10.13;;;5.05;;
48596;SDS011;34382;43.160;24.148;2022-10-17T06:02:08;10.70;;;5.38;;
48596;SDS011;34382;43.160;24.148;2022-10-17T06:03:43;11.35;;;4.93;;
48596;SDS011;34382;43.160;24.148;2022-10-17T06:05:15;10.70;;;5.30;;
48596;SDS011;34382;43.160;24.148;2022-10-17T06:06:47;11.70;;;5.90;;
48596;SDS011;34382;43.160;24.148;2022-10-17T06:08:20;11.68;;;6.18;;
48596;SDS011;34382;43.160;24.148;2022-10-17T06:09:52;10.23;;;5.20;;
48596;SDS011;34382;43.160;24.148;2022-10-17T06:11:24;11.52;;;5.50;;
48596;SDS011;34382;43.160;24.148;2022-10-17T06:12:56;11.02;;;5.75;;
48596;SDS011;34382;43.160;24.148;2022-10-17T06:14:28;10.98;;;5.93;;
48596;SDS011;34382;43.160;24.148;2022-10-17T06:16:00;14.13;;;5.85;;
48596;SDS011;34382;43.160;24.148;2022-10-17T06:17:32;9.07;;;5.18;;
48596;SDS011;34382;43.160;24.148;2022-10-17T06:19:05;11.90;;;5.53;;
48596;SDS011;34382;43.160;24.148;2022-10-17T06:20:38;10.55;;;5.97;;
48596;SDS011;34382;43.160;24.148;2022-10-17T06:22:16;9.57;;;5.05;;
48596;SDS011;34382;43.160;24.148;2022-10-17T06:23:48;12.93;;;5.72;;
48596;SDS011;34382;43.160;24.148;2022-10-17T06:25:20;11.52;;;5.57;;
48596;SDS011;34382;43.160;24.148;2022-10-17T06:26:52;10.95;;;5.78;;
48596;SDS011;34382;43.160;24.148;2022-10-17T06:28:25;9.85;;;5.45;;
48596;SDS011;34382;43.160;24.148;2022-10-17T06:29:57;11.18;;;5.97;;
48596;SDS011;34382;43.160;24.148;2022-10-17T06:31:29;11.95;;;6.28;;
48596;SDS011;34382;43.160;24.148;2022-10-17T06:33:01;11.73;;;5.57;;
48596;SDS011;34382;43.160;24.148;2022-10-17T06:34:34;11.27;;;5.85;;
48596;SDS011;34382;43.160;24.148;2022-10-17T06:36:06;11.80;;;6.30;;
48596;SDS011;34382;43.160;24.148;2022-10-17T06:37:40;13.02;;;6.60;;
48596;SDS011;34382;43.160;24.148;2022-10-17T06:39:12;11.63;;;6.53;;
48596;SDS011;34382;43.160;24.148;2022-10-17T06:40:44;11.35;;;6.03;;
48596;SDS011;34382;43.160;24.148;2022-10-17T06:42:17;10.90;;;5.80;;
48596;SDS011;34382;43.160;24.148;2022-10-17T06:43:49;10.88;;;5.82;;
48596;SDS011;34382;43.160;24.148;2022-10-17T06:45:22;11.23;;;6.05;;
48596;SDS011;34382;43.160;24.148;2022-10-17T06:46:57;11.95;;;6.53;;
48596;SDS011;34382;43.160;24.148;2022-10-17T06:48:30;11.38;;;5.97;;
48596;SDS011;34382;43.160;24.148;2022-10-17T06:50:02;12.95;;;6.35;;
48596;SDS011;34382;43.160;24.148;2022-10-17T06:51:35;10.63;;;5.68;;
48596;SDS011;34382;43.160;24.148;2022-10-17T06:53:08;12.55;;;6.13;;
48596;SDS011;34382;43.160;24.148;2022-10-17T06:54:40;12.73;;;6.03;;
48596;SDS011;34382;43.160;24.148;2022-10-17T06:56:12;11.13;;;5.57;;
48596;SDS011;34382;43.160;24.148;2022-10-17T06:57:44;11.15;;;5.63;;
48596;SDS011;34382;43.160;24.148;2022-10-17T06:59:16;9.65;;;5.70;;
48596;SDS011;34382;43.160;24.148;2022-10-17T07:00:48;13.98;;;6.43;;
48596;SDS011;34382;43.160;24.148;2022-10-17T07:02:21;11.35;;;5.88;;
48596;SDS011;34382;43.160;24.148;2022-10-17T07:05:26;10.43;;;5.85;;
48596;SDS011;34382;43.160;24.148;2022-10-17T07:06:58;11.98;;;6.03;;
48596;SDS011;34382;43.160;24.148;2022-10-17T07:08:33;11.73;;;5.97;;
48596;SDS011;34382;43.160;24.148;2022-10-17T07:10:06;10.70;;;5.13;;
48596;SDS011;34382;43.160;24.148;2022-10-17T07:13:12;11.45;;;6.53;;
48596;SDS011;34382;43.160;24.148;2022-10-17T07:14:44;11.73;;;6.07;;
48596;SDS011;34382;43.160;24.148;2022-10-17T07:16:17;10.65;;;5.45;;
48596;SDS011;34382;43.160;24.148;2022-10-17T07:17:50;10.50;;;5.55;;
48596;SDS011;34382;43.160;24.148;2022-10-17T07:19:22;10.32;;;5.60;;
48596;SDS011;34382;43.160;24.148;2022-10-17T07:20:54;11.43;;;5.90;;
48596;SDS011;34382;43.160;24.148;2022-10-17T07:22:27;10.93;;;5.93;;
48596;SDS011;34382;43.160;24.148;2022-10-17T07:24:00;10.98;;;6.03;;
48596;SDS011;34382;43.160;24.148;2022-10-17T07:25:35;10.80;;;5.65;;
48596;SDS011;34382;43.160;24.148;2022-10-17T07:27:11;11.40;;;6.10;;
48596;SDS011;34382;43.160;24.148;2022-10-17T07:30:16;13.85;;;6.35;;
48596;SDS011;34382;43.160;24.148;2022-10-17T07:31:49;12.90;;;6.05;;
48596;SDS011;34382;43.160;24.148;2022-10-17T07:33:22;9.93;;;6.32;;
48596;SDS011;34382;43.160;24.148;2022-10-17T07:34:55;10.43;;;5.20;;
48596;SDS011;34382;43.160;24.148;2022-10-17T07:36:27;9.82;;;5.63;;
48596;SDS011;34382;43.160;24.148;2022-10-17T07:37:59;11.23;;;5.70;;
48596;SDS011;34382;43.160;24.148;2022-10-17T07:39:32;11.13;;;6.00;;
48596;SDS011;34382;43.160;24.148;2022-10-17T07:41:06;9.02;;;5.43;;
48596;SDS011;34382;43.160;24.148;2022-10-17T07:42:39;9.82;;;6.15;;
48596;SDS011;34382;43.160;24.148;2022-10-17T07:44:12;12.15;;;6.65;;
48596;SDS011;34382;43.160;24.148;2022-10-17T07:45:45;13.25;;;7.00;;
48596;SDS011;34382;43.160;24.148;2022-10-17T07:47:18;12.50;;;6.68;;
48596;SDS011;34382;43.160;24.148;2022-10-17T07:48:50;12.10;;;6.70;;
48596;SDS011;34382;43.160;24.148;2022-10-17T07:50:23;13.18;;;6.75;;
48596;SDS011;34382;43.160;24.148;2022-10-17T07:51:56;13.40;;;7.05;;
48596;SDS011;34382;43.160;24.148;2022-10-17T07:53:28;14.90;;;6.95;;
48596;SDS011;34382;43.160;24.148;2022-10-17T07:55:01;11.05;;;5.80;;
48596;SDS011;34382;43.160;24.148;2022-10-17T07:56:34;10.35;;;5.55;;
48596;SDS011;34382;43.160;24.148;2022-10-17T07:58:07;9.85;;;5.20;;
48596;SDS011;34382;43.160;24.148;2022-10-17T07:59:40;11.05;;;5.10;;
48596;SDS011;34382;43.160;24.148;2022-10-17T08:01:12;9.73;;;5.73;;
48596;SDS011;34382;43.160;24.148;2022-10-17T08:02:46;9.93;;;5.13;;
48596;SDS011;34382;43.160;24.148;2022-10-17T08:04:19;11.82;;;5.38;;
48596;SDS011;34382;43.160;24.148;2022-10-17T08:05:51;10.23;;;5.10;;
48596;SDS011;34382;43.160;24.148;2022-10-17T08:07:24;9.90;;;4.90;;
48596;SDS011;34382;43.160;24.148;2022-10-17T08:08:59;10.30;;;5.03;;
48596;SDS011;34382;43.160;24.148;2022-10-17T08:10:32;10.27;;;5.13;;
48596;SDS011;34382;43.160;24.148;2022-10-17T08:12:04;8.35;;;4.53;;
48596;SDS011;34382;43.160;24.148;2022-10-17T08:13:37;8.07;;;4.05;;
48596;SDS011;34382;43.160;24.148;2022-10-17T08:15:11;8.30;;;4.20;;
48596;SDS011;34382;43.160;24.148;2022-10-17T08:16:43;8.32;;;4.53;;
48596;SDS011;34382;43.160;24.148;2022-10-17T08:18:16;8.13;;;4.60;;
48596;SDS011;34382;43.160;24.148;2022-10-17T08:19:48;9.45;;;4.90;;
48596;SDS011;34382;43.160;24.148;2022-10-17T08:21:20;10.77;;;5.10;;
48596;SDS011;34382;43.160;24.148;2022-10-17T08:22:53;9.32;;;4.47;;
48596;SDS011;34382;43.160;24.148;2022-10-17T08:24:26;9.63;;;4.82;;
48596;SDS011;34382;43.160;24.148;2022-10-17T08:25:58;10.77;;;4.80;;
48596;SDS011;34382;43.160;24.148;2022-10-17T08:27:35;8.85;;;4.72;;
48596;SDS011;34382;43.160;24.148;2022-10-17T08:29:16;8.55;;;4.07;;
48596;SDS011;34382;43.160;24.148;2022-10-17T08:30:49;8.82;;;4.57;;
48596;SDS011;34382;43.160;24.148;2022-10-17T08:32:21;9.50;;;4.30;;
48596;SDS011;34382;43.160;24.148;2022-10-17T08:33:56;9.65;;;4.80;;
48596;SDS011;34382;43.160;24.148;2022-10-17T08:35:28;11.18;;;5.45;;
48596;SDS011;34382;43.160;24.148;2022-10-17T08:37:01;10.10;;;4.68;;
48596;SDS011;34382;43.160;24.148;2022-10-17T08:38:34;9.55;;;4.95;;
48596;SDS011;34382;43.160;24.148;2022-10-17T08:40:11;9.02;;;5.10;;
48596;SDS011;34382;43.160;24.148;2022-10-17T08:43:56;10.05;;;4.60;;
48596;SDS011;34382;43.160;24.148;2022-10-17T08:45:34;9.07;;;4.30;;
48596;SDS011;34382;43.160;24.148;2022-10-17T08:47:21;8.60;;;4.22;;
48596;SDS011;34382;43.160;24.148;2022-10-17T08:49:18;9.85;;;4.93;;
48596;SDS011;34382;43.160;24.148;2022-10-17T08:51:22;9.50;;;4.30;;
48596;SDS011;34382;43.160;24.148;2022-10-17T08:54:52;10.13;;;4.60;;
48596;SDS011;34382;43.160;24.148;2022-10-17T08:56:25;8.55;;;4.43;;
48596;SDS011;34382;43.160;24.148;2022-10-17T08:58:19;7.57;;;3.80;;
48596;SDS011;34382;43.160;24.148;2022-10-17T08:59:53;9.50;;;4.30;;
48596;SDS011;34382;43.160;24.148;2022-10-17T09:01:33;8.30;;;3.85;;
48596;SDS011;34382;43.160;24.148;2022-10-17T09:03:13;10.07;;;4.35;;
48596;SDS011;34382;43.160;24.148;2022-10-17T09:05:23;8.30;;;4.10;;
48596;SDS011;34382;43.160;24.148;2022-10-17T09:09:14;9.15;;;4.75;;
48596;SDS011;34382;43.160;24.148;2022-10-17T09:13:15;10.68;;;4.63;;
48596;SDS011;34382;43.160;24.148;2022-10-17T09:18:34;9.52;;;4.93;;
48596;SDS011;34382;43.160;24.148;2022-10-17T09:20:15;9.00;;;5.07;;
48596;SDS011;34382;43.160;24.148;2022-10-17T09:22:32;10.07;;;5.22;;
48596;SDS011;34382;43.160;24.148;2022-10-17T09:23:52;9.75;;;4.97;;
48596;SDS011;34382;43.160;24.148;2022-10-17T09:25:43;11.50;;;5.10;;
48596;SDS011;34382;43.160;24.148;2022-10-17T09:29:04;9.55;;;4.88;;
48596;SDS011;34382;43.160;24.148;2022-10-17T09:32:23;9.90;;;4.85;;
48596;SDS011;34382;43.160;24.148;2022-10-17T09:33:56;8.73;;;5.05;;
48596;SDS011;34382;43.160;24.148;2022-10-17T09:35:32;9.82;;;4.63;;
48596;SDS011;34382;43.160;24.148;2022-10-17T09:37:06;8.90;;;4.88;;
48596;SDS011;34382;43.160;24.148;2022-10-17T09:38:46;8.30;;;4.50;;
48596;SDS011;34382;43.160;24.148;2022-10-17T09:40:23;11.18;;;5.47;;
48596;SDS011;34382;43.160;24.148;2022-10-17T09:42:00;10.32;;;5.10;;
48596;SDS011;34382;43.160;24.148;2022-10-17T09:43:33;10.15;;;5.03;;
48596;SDS011;34382;43.160;24.148;2022-10-17T09:45:21;9.18;;;4.78;;
48596;SDS011;34382;43.160;24.148;2022-10-17T09:49:33;11.55;;;5.03;;
48596;SDS011;34382;43.160;24.148;2022-10-17T09:50:48;8.35;;;4.75;;
48596;SDS011;34382;43.160;24.148;2022-10-17T09:52:41;10.05;;;4.80;;
48596;SDS011;34382;43.160;24.148;2022-10-17T09:54:25;9.80;;;4.53;;
48596;SDS011;34382;43.160;24.148;2022-10-17T09:56:01;9.77;;;4.68;;
48596;SDS011;34382;43.160;24.148;2022-10-17T09:57:50;8.13;;;4.40;;
48596;SDS011;34382;43.160;24.148;2022-10-17T09:59:32;9.55;;;4.55;;
48596;SDS011;34382;43.160;24.148;2022-10-17T10:04:58;8.55;;;4.35;;
48596;SDS011;34382;43.160;24.148;2022-10-17T10:06:37;10.70;;;4.63;;
48596;SDS011;34382;43.160;24.148;2022-10-17T10:08:14;10.30;;;4.97;;
48596;SDS011;34382;43.160;24.148;2022-10-17T10:09:48;8.82;;;4.28;;
48596;SDS011;34382;43.160;24.148;2022-10-17T10:11:21;8.98;;;4.47;;
48596;SDS011;34382;43.160;24.148;2022-10-17T10:14:48;10.20;;;4.63;;
48596;SDS011;34382;43.160;24.148;2022-10-17T10:16:31;9.95;;;4.82;;
48596;SDS011;34382;43.160;24.148;2022-10-17T10:18:25;9.55;;;4.88;;
48596;SDS011;34382;43.160;24.148;2022-10-17T10:19:55;8.15;;;4.40;;
48596;SDS011;34382;43.160;24.148;2022-10-17T10:21:28;7.80;;;4.07;;
48596;SDS011;34382;43.160;24.148;2022-10-17T10:23:11;9.57;;;4.43;;
48596;SDS011;34382;43.160;24.148;2022-10-17T10:24:45;9.07;;;4.30;;
48596;SDS011;34382;43.160;24.148;2022-10-17T10:26:24;7.97;;;4.18;;